createdAt,value
2018-01-04T00:02:04.885Z,10.82
2018-01-04T00:04:33.231Z,15.70
2018-01-04T00:07:01.646Z,7.77
2018-01-04T00:09:29.973Z,8.82
2018-01-04T00:11:58.298Z,14.60
2018-01-04T00:14:26.635Z,19.70
2018-01-04T00:16:55.045Z,22.98
2018-01-04T00:19:23.438Z,14.98
2018-01-04T00:21:51.694Z,16.33
2018-01-04T00:24:20.045Z,26.33
2018-01-04T00:26:48.358Z,14.00
2018-01-04T00:29:16.678Z,11.60
2018-01-04T00:31:45.006Z,13.82
2018-01-04T00:34:13.378Z,10.55
2018-01-04T00:36:41.713Z,14.65
2018-01-04T00:39:10.035Z,4.85
2018-01-04T00:41:38.359Z,13.05
2018-01-04T00:44:06.669Z,22.95
2018-01-04T00:46:35.061Z,11.45
2018-01-04T00:49:03.369Z,9.27
2018-01-04T00:51:31.698Z,13.73
2018-01-04T00:54:00.090Z,16.95
2018-01-04T00:56:28.474Z,17.83
2018-01-04T00:58:56.786Z,27.62
2018-01-04T01:01:25.117Z,28.17
2018-01-04T01:03:53.433Z,21.00
2018-01-04T01:06:21.773Z,24.35
2018-01-04T01:08:50.086Z,17.73
2018-01-04T01:11:18.413Z,22.05
2018-01-04T01:13:46.725Z,41.00
2018-01-04T01:16:15.057Z,30.12
2018-01-04T01:18:43.458Z,21.58
2018-01-04T01:21:11.795Z,22.98
2018-01-04T01:23:40.101Z,26.27
2018-01-04T01:26:08.442Z,26.25
2018-01-04T01:28:36.762Z,26.50
2018-01-04T01:31:05.094Z,32.60
2018-01-04T01:33:33.516Z,16.67
2018-01-04T01:36:01.850Z,23.00
2018-01-04T01:38:30.153Z,32.65
2018-01-04T01:40:58.491Z,40.95
2018-01-04T01:43:26.818Z,25.48
2018-01-04T01:45:55.193Z,29.05
2018-01-04T01:48:23.570Z,24.92
2018-01-04T01:50:51.945Z,31.62
2018-01-04T01:53:20.257Z,24.48
2018-01-04T01:55:48.595Z,23.87
2018-01-04T01:58:16.976Z,39.80
2018-01-04T02:00:45.318Z,29.90
2018-01-04T02:03:13.734Z,22.45
2018-01-04T02:05:42.074Z,14.10
2018-01-04T02:08:10.391Z,33.80
2018-01-04T02:10:38.714Z,19.60
2018-01-04T02:13:07.026Z,33.38
2018-01-04T02:15:35.418Z,23.90
2018-01-04T02:18:15.521Z,33.63
2018-01-04T02:20:55.761Z,28.75
2018-01-04T02:23:36.034Z,41.13
2018-01-04T02:26:04.365Z,39.20
2018-01-04T02:28:44.614Z,23.25
2018-01-04T02:31:24.966Z,18.85
2018-01-04T02:34:05.028Z,32.70
2018-01-04T02:36:45.273Z,49.08
2018-01-04T02:39:25.118Z,21.12
2018-01-04T02:42:04.969Z,40.33
2018-01-04T02:44:39.902Z,24.87
2018-01-04T02:47:07.955Z,19.02
2018-01-04T02:49:35.990Z,33.53
2018-01-04T02:52:04.042Z,20.10
2018-01-04T02:54:32.074Z,24.42
2018-01-04T02:57:00.130Z,35.50
2018-01-04T02:59:28.167Z,40.00
2018-01-04T03:01:56.281Z,22.37
2018-01-04T03:04:24.353Z,45.70
2018-01-04T03:06:52.401Z,14.20
2018-01-04T03:09:20.493Z,36.28
2018-01-04T03:11:48.567Z,35.78
2018-01-04T03:14:16.638Z,30.37
2018-01-04T03:16:44.686Z,20.27
2018-01-04T03:19:12.721Z,30.37
2018-01-04T03:21:46.311Z,23.30
2018-01-04T03:24:14.337Z,15.63
2018-01-04T03:26:48.010Z,26.73
2018-01-04T03:29:21.534Z,32.97
2018-01-04T03:31:55.094Z,22.65
2018-01-04T03:34:28.938Z,33.65
2018-01-04T03:37:02.721Z,24.23
2018-01-04T03:39:30.823Z,24.85
2018-01-04T03:42:04.553Z,28.98
2018-01-04T03:44:38.269Z,21.12
2018-01-04T03:47:12.034Z,18.15
2018-01-04T03:49:45.802Z,25.60
2018-01-04T03:52:32.696Z,29.00
2018-01-04T03:55:06.434Z,32.53
2018-01-04T03:57:40.162Z,28.92
2018-01-04T04:00:13.883Z,37.60
2018-01-04T04:02:47.474Z,35.25
2018-01-04T04:05:21.218Z,28.42
2018-01-04T04:07:49.270Z,25.73
2018-01-04T04:10:17.393Z,34.88
2018-01-04T04:12:45.441Z,44.35
2018-01-04T04:15:13.477Z,29.85
2018-01-04T04:17:41.533Z,28.17
2018-01-04T04:20:09.561Z,30.12
2018-01-04T04:22:37.617Z,43.53
2018-01-04T04:25:05.655Z,25.45
2018-01-04T04:27:33.705Z,25.12
2018-01-04T04:30:01.742Z,26.50
2018-01-04T04:32:29.789Z,25.60
2018-01-04T04:34:57.894Z,32.55
2018-01-04T04:37:25.951Z,31.95
2018-01-04T04:39:53.978Z,23.10
2018-01-04T04:42:22.097Z,18.23
2018-01-04T04:44:50.139Z,35.03
2018-01-04T04:47:18.237Z,41.35
2018-01-04T04:49:46.314Z,33.88
2018-01-04T04:52:14.370Z,24.48
2018-01-04T04:54:42.406Z,18.23
2018-01-04T04:57:10.473Z,19.05
2018-01-04T04:59:38.596Z,34.00
2018-01-04T05:02:06.645Z,40.78
2018-01-04T05:04:34.686Z,35.70
2018-01-04T05:07:02.802Z,19.02
2018-01-04T05:09:30.870Z,49.70
2018-01-04T05:11:58.905Z,43.63
2018-01-04T05:14:26.969Z,48.35
2018-01-04T05:16:54.998Z,32.53
2018-01-04T05:19:23.149Z,26.87
2018-01-04T05:21:51.181Z,50.08
2018-01-04T05:24:19.239Z,41.67
2018-01-04T05:26:47.269Z,29.33
2018-01-04T05:29:15.437Z,21.17
2018-01-04T05:31:43.469Z,52.20
2018-01-04T05:34:11.526Z,42.30
2018-01-04T05:36:39.553Z,27.92
2018-01-04T05:39:07.614Z,28.65
2018-01-04T05:41:35.644Z,29.42
2018-01-04T05:44:03.702Z,34.28
2018-01-04T05:46:31.734Z,37.95
2018-01-04T05:48:59.791Z,25.02
2018-01-04T05:51:27.830Z,31.95
2018-01-04T05:53:55.877Z,27.67
2018-01-04T05:56:23.909Z,45.08
2018-01-04T05:58:51.963Z,44.78
2018-01-04T06:01:19.994Z,35.47
2018-01-04T06:03:48.051Z,27.95
2018-01-04T06:06:16.082Z,39.53
2018-01-04T06:08:44.137Z,48.65
2018-01-04T06:11:12.173Z,45.95
2018-01-04T06:13:40.218Z,31.85
2018-01-04T06:16:08.246Z,54.78
2018-01-04T06:18:36.302Z,31.17
2018-01-04T06:21:04.340Z,42.90
2018-01-04T06:23:34.426Z,33.77
2018-01-04T06:26:02.681Z,25.97
2018-01-04T06:28:30.739Z,51.03
2018-01-04T06:30:58.774Z,37.22
2018-01-04T06:33:26.990Z,69.97
2018-01-04T06:35:55.046Z,47.90
2018-01-04T06:38:23.131Z,41.17
2018-01-04T06:40:51.175Z,40.07
2018-01-04T06:43:19.234Z,58.85
2018-01-04T06:45:47.276Z,37.30
2018-01-04T06:48:15.562Z,40.07
2018-01-04T06:50:46.538Z,48.17
2018-01-04T06:53:15.185Z,44.80
2018-01-04T06:55:43.217Z,54.77
2018-01-04T06:58:11.279Z,39.10
2018-01-04T07:00:39.813Z,43.17
2018-01-04T07:03:07.821Z,44.30
2018-01-04T07:05:35.879Z,65.63
2018-01-04T07:08:03.905Z,45.53
2018-01-04T07:10:31.963Z,54.23
2018-01-04T07:12:59.998Z,57.37
2018-01-04T07:15:28.058Z,50.08
2018-01-04T07:17:56.093Z,58.90
2018-01-04T07:20:24.150Z,31.83
2018-01-04T07:22:52.186Z,46.77
2018-01-04T07:25:20.242Z,54.93
2018-01-04T07:27:48.274Z,41.00
2018-01-04T07:30:16.329Z,42.10
2018-01-04T07:32:44.362Z,48.67
2018-01-04T07:35:12.418Z,42.00
2018-01-04T07:37:40.458Z,36.87
2018-01-04T07:40:08.513Z,58.37
2018-01-04T07:42:36.838Z,40.70
2018-01-04T07:45:05.174Z,67.77
2018-01-04T07:47:33.490Z,38.60
2018-01-04T07:50:01.826Z,50.00
2018-01-04T07:52:30.148Z,20.62
2018-01-04T07:54:58.528Z,49.72
2018-01-04T07:57:26.807Z,51.03
2018-01-04T07:59:55.163Z,49.33
2018-01-04T08:02:23.473Z,74.50
2018-01-04T08:04:51.790Z,47.40
2018-01-04T08:07:20.129Z,35.83
2018-01-04T08:09:48.447Z,48.40
2018-01-04T08:12:16.785Z,33.60
2018-01-04T08:14:45.102Z,52.58
2018-01-04T08:17:13.442Z,56.20
2018-01-04T08:19:41.757Z,38.90
2018-01-04T08:22:10.089Z,45.73
2018-01-04T08:24:38.406Z,75.90
2018-01-04T08:27:06.746Z,52.42
2018-01-04T08:29:35.058Z,55.90
2018-01-04T08:32:03.406Z,42.25
2018-01-04T08:34:31.718Z,54.88
2018-01-04T08:37:00.070Z,65.28
2018-01-04T08:39:28.386Z,47.53
2018-01-04T08:41:56.730Z,59.03
2018-01-04T08:44:25.080Z,50.23
2018-01-04T08:46:53.438Z,72.03
2018-01-04T08:49:21.761Z,62.95
2018-01-04T08:51:50.070Z,69.17
2018-01-04T08:54:18.711Z,65.57
2018-01-04T08:56:47.026Z,51.40
2018-01-04T08:59:15.365Z,61.53
2018-01-04T09:01:43.694Z,51.37
2018-01-04T09:04:12.035Z,50.77
2018-01-04T09:06:40.358Z,69.75
2018-01-04T09:09:08.694Z,81.83
2018-01-04T09:11:37.010Z,63.80
2018-01-04T09:14:05.531Z,58.15
2018-01-04T09:16:33.850Z,57.50
2018-01-04T09:19:02.191Z,76.50
2018-01-04T09:21:30.512Z,63.45
2018-01-04T09:23:58.895Z,66.05
2018-01-04T09:26:27.386Z,67.03
2018-01-04T09:28:56.091Z,57.10
2018-01-04T09:31:25.351Z,74.13
2018-01-04T09:33:54.096Z,40.37
2018-01-04T09:36:23.841Z,64.37
2018-01-04T09:38:52.597Z,38.10
2018-01-04T09:41:21.322Z,48.37
2018-01-04T09:43:50.177Z,41.23
2018-01-04T09:46:18.925Z,29.30
2018-01-04T09:48:47.663Z,63.77
2018-01-04T09:51:16.443Z,56.80
2018-01-04T09:53:46.182Z,48.80
2018-01-04T09:56:14.821Z,62.93
2018-01-04T09:58:43.349Z,63.20
2018-01-04T10:01:11.899Z,68.70
2018-01-04T10:03:40.670Z,37.50
2018-01-04T10:06:09.461Z,35.17
2018-01-04T10:08:38.144Z,60.12
2018-01-04T10:11:06.817Z,43.70
2018-01-04T10:13:35.472Z,36.45
2018-01-04T10:16:04.106Z,64.80
2018-01-04T10:18:32.730Z,43.93
2018-01-04T10:21:01.451Z,56.13
2018-01-04T10:23:30.141Z,41.90
2018-01-04T10:25:58.897Z,54.40
2018-01-04T10:28:27.670Z,52.03
2018-01-04T10:30:56.484Z,55.88
2018-01-04T10:33:25.270Z,54.53
2018-01-04T10:35:54.008Z,65.47
2018-01-04T10:38:22.669Z,62.80
2018-01-04T10:40:51.358Z,37.17
2018-01-04T10:43:19.747Z,63.27
2018-01-04T10:45:48.086Z,65.57
2018-01-04T10:48:16.406Z,55.15
2018-01-04T10:50:44.737Z,49.07
2018-01-04T10:53:13.054Z,52.58
2018-01-04T10:55:41.394Z,51.87
2018-01-04T10:58:09.718Z,90.27
2018-01-04T11:00:38.059Z,47.10
2018-01-04T11:03:06.374Z,44.90
2018-01-04T11:05:34.717Z,72.87
2018-01-04T11:08:03.038Z,58.72
2018-01-04T11:10:31.390Z,73.33
2018-01-04T11:12:59.714Z,60.43
2018-01-04T11:15:28.059Z,48.87
2018-01-04T11:17:56.382Z,75.90
2018-01-04T11:20:24.727Z,74.50
2018-01-04T11:22:53.083Z,50.83
2018-01-04T11:25:21.421Z,51.67
2018-01-04T11:27:49.741Z,55.10
2018-01-04T11:30:18.071Z,61.47
2018-01-04T11:32:46.391Z,68.47
2018-01-04T11:35:14.730Z,42.10
2018-01-04T11:37:43.709Z,58.10
2018-01-04T11:40:12.046Z,41.60
2018-01-04T11:42:40.374Z,54.77
2018-01-04T11:45:08.714Z,55.70
2018-01-04T11:47:37.034Z,52.40
2018-01-04T11:50:05.390Z,69.60
2018-01-04T11:52:33.714Z,56.47
2018-01-04T11:55:02.062Z,52.73
2018-01-04T11:57:30.719Z,57.80
2018-01-04T11:59:59.287Z,69.27
2018-01-04T12:02:27.593Z,52.73
2018-01-04T12:04:55.930Z,50.07
2018-01-04T12:07:24.252Z,56.83
2018-01-04T12:09:52.603Z,40.53
2018-01-04T12:12:20.974Z,56.50
2018-01-04T12:14:49.246Z,51.93
2018-01-04T12:17:17.583Z,51.80
2018-01-04T12:19:45.907Z,62.17
2018-01-04T12:22:14.252Z,42.25
2018-01-04T12:24:42.586Z,57.80
2018-01-04T12:27:10.925Z,39.95
2018-01-04T12:29:39.403Z,52.23
2018-01-04T12:32:08.068Z,48.67
2018-01-04T12:34:36.547Z,62.17
2018-01-04T12:37:05.277Z,43.03
2018-01-04T12:39:33.722Z,65.07
2018-01-04T12:42:02.126Z,65.85
2018-01-04T12:44:30.631Z,53.13
2018-01-04T12:46:59.118Z,47.97
2018-01-04T12:49:27.510Z,57.27
2018-01-04T12:51:56.062Z,55.03
2018-01-04T12:54:25.035Z,55.60
2018-01-04T12:56:54.580Z,40.45
2018-01-04T12:59:22.966Z,52.58
2018-01-04T13:01:51.310Z,53.73
2018-01-04T13:04:19.750Z,57.10
2018-01-04T13:06:48.087Z,51.35
2018-01-04T13:09:16.409Z,52.67
2018-01-04T13:11:44.902Z,62.38
2018-01-04T13:14:14.010Z,45.97
2018-01-04T13:16:42.350Z,28.87
2018-01-04T13:19:10.669Z,45.83
2018-01-04T13:21:39.015Z,30.30
2018-01-04T13:24:07.330Z,31.63
2018-01-04T13:26:35.679Z,32.27
2018-01-04T13:29:03.990Z,42.07
2018-01-04T13:31:32.334Z,44.65
2018-01-04T13:34:00.654Z,28.37
2018-01-04T13:36:29.001Z,44.80
2018-01-04T13:38:57.315Z,34.87
2018-01-04T13:41:25.665Z,33.97
2018-01-04T13:43:53.986Z,34.78
2018-01-04T13:46:22.322Z,27.23
2018-01-04T13:48:50.637Z,55.97
2018-01-04T13:51:18.982Z,55.13
2018-01-04T13:53:47.299Z,44.00
2018-01-04T13:56:15.637Z,31.87
2018-01-04T13:58:43.954Z,41.30
2018-01-04T14:01:12.294Z,28.67
2018-01-04T14:03:40.610Z,34.60
2018-01-04T14:06:08.951Z,26.80
2018-01-04T14:08:37.266Z,28.05
2018-01-04T14:11:05.616Z,26.83
2018-01-04T14:13:33.923Z,53.43
2018-01-04T14:16:02.283Z,41.37
2018-01-04T14:18:30.603Z,37.47
2018-01-04T14:20:58.918Z,24.30
2018-01-04T14:23:27.258Z,31.27
2018-01-04T14:25:55.894Z,31.85
2018-01-04T14:28:24.576Z,45.92
2018-01-04T14:30:52.954Z,30.80
2018-01-04T14:33:21.294Z,43.07
2018-01-04T14:35:49.610Z,27.30
2018-01-04T14:38:17.946Z,26.87
2018-01-04T14:40:46.266Z,20.23
2018-01-04T14:43:14.606Z,36.25
2018-01-04T14:45:42.919Z,32.38
2018-01-04T14:48:11.260Z,40.60
2018-01-04T14:50:39.604Z,43.43
2018-01-04T14:53:07.946Z,18.90
2018-01-04T14:55:36.267Z,19.87
2018-01-04T14:58:04.606Z,19.27
2018-01-04T15:00:32.922Z,19.13
2018-01-04T15:03:01.262Z,31.20
2018-01-04T15:05:29.668Z,28.10
2018-01-04T15:07:58.035Z,31.30
2018-01-04T15:10:26.350Z,14.47
2018-01-04T15:12:54.698Z,16.73
2018-01-04T15:15:23.027Z,25.23
2018-01-04T15:17:51.394Z,20.90
2018-01-04T15:20:19.713Z,39.22
2018-01-04T15:22:48.056Z,25.00
2018-01-04T15:25:16.376Z,26.52
2018-01-04T15:27:44.718Z,25.30
2018-01-04T15:30:13.848Z,18.10
2018-01-04T15:32:42.195Z,29.30
2018-01-04T15:35:10.505Z,23.90
2018-01-04T15:37:38.841Z,15.40
2018-01-04T15:40:07.185Z,17.75
2018-01-04T15:42:35.503Z,18.37
2018-01-04T15:45:03.822Z,17.80
2018-01-04T15:47:32.171Z,11.10
2018-01-04T15:50:00.481Z,9.37
2018-01-04T15:52:28.831Z,10.57
2018-01-04T15:54:57.149Z,12.27
2018-01-04T15:57:25.566Z,16.73
2018-01-04T15:59:53.875Z,18.60
2018-01-04T16:02:22.214Z,28.00
2018-01-04T16:04:50.545Z,11.97
2018-01-04T16:07:18.865Z,14.17
2018-01-04T16:09:47.195Z,8.77
2018-01-04T16:12:15.530Z,14.80
2018-01-04T16:14:43.847Z,28.13
2018-01-04T16:17:12.449Z,12.37
2018-01-04T16:19:40.763Z,16.33
2018-01-04T16:22:09.078Z,8.82
2018-01-04T16:24:37.415Z,13.07
2018-01-04T16:27:05.749Z,12.93
2018-01-04T16:29:34.070Z,6.07
2018-01-04T16:32:02.798Z,13.95
2018-01-04T16:34:36.032Z,11.13
2018-01-04T16:37:08.398Z,13.97
2018-01-04T16:39:36.734Z,9.00
2018-01-04T16:42:05.050Z,8.67
2018-01-04T16:44:33.390Z,16.83
2018-01-04T16:47:01.706Z,13.20
2018-01-04T16:49:30.158Z,8.53
2018-01-04T16:51:58.482Z,11.40
2018-01-04T16:54:26.822Z,9.73
2018-01-04T16:56:55.129Z,13.97
2018-01-04T16:59:23.681Z,16.08
2018-01-04T17:01:52.076Z,4.30
2018-01-04T17:04:20.435Z,9.40
2018-01-04T17:06:48.780Z,10.10
2018-01-04T17:09:17.107Z,7.20
2018-01-04T17:11:45.417Z,3.00
2018-01-04T17:14:13.747Z,7.60
2018-01-04T17:16:42.058Z,4.60
2018-01-04T17:19:10.391Z,2.13
2018-01-04T17:21:38.706Z,3.00
2018-01-04T17:24:07.047Z,9.45
2018-01-04T17:26:35.355Z,2.53
2018-01-04T17:29:03.699Z,8.97
2018-01-04T17:31:32.016Z,2.73
2018-01-04T17:34:00.363Z,3.10
2018-01-04T17:36:28.682Z,7.50
2018-01-04T17:38:56.997Z,7.40
2018-01-04T17:41:25.310Z,3.62
2018-01-04T17:43:53.646Z,4.03
2018-01-04T17:46:21.956Z,4.60
2018-01-04T17:48:50.290Z,5.03
2018-01-04T17:51:18.602Z,5.97
2018-01-04T17:53:46.943Z,6.60
2018-01-04T17:56:15.293Z,3.90
2018-01-04T17:58:43.599Z,11.43
2018-01-04T18:01:11.916Z,8.60
2018-01-04T18:03:40.255Z,4.87
2018-01-04T18:06:08.566Z,9.33
2018-01-04T18:08:36.905Z,8.00
2018-01-04T18:11:05.230Z,16.50
2018-01-04T18:13:33.564Z,16.30
2018-01-04T18:16:01.887Z,10.77
2018-01-04T18:18:30.226Z,13.07
2018-01-04T18:20:58.542Z,11.60
2018-01-04T18:23:26.887Z,15.80
2018-01-04T18:25:55.202Z,26.87
2018-01-04T18:28:23.525Z,23.15
2018-01-04T18:30:51.918Z,26.93
2018-01-04T18:33:20.242Z,25.20
2018-01-04T18:35:48.587Z,27.73
2018-01-04T18:38:17.041Z,30.00
2018-01-04T18:40:45.378Z,33.40
2018-01-04T18:43:13.701Z,28.17
2018-01-04T18:45:42.144Z,30.53
2018-01-04T18:48:10.674Z,33.40
2018-01-04T18:50:39.027Z,29.42
2018-01-04T18:53:07.350Z,34.50
2018-01-04T18:55:35.698Z,24.77
2018-01-04T18:58:04.036Z,34.73
2018-01-04T19:00:32.387Z,31.83
2018-01-04T19:03:00.710Z,31.67
2018-01-04T19:05:29.058Z,30.08
2018-01-04T19:07:57.386Z,31.83
2018-01-04T19:10:25.730Z,27.20
2018-01-04T19:12:54.059Z,25.67
2018-01-04T19:15:23.122Z,35.37
2018-01-04T19:17:51.445Z,37.37
2018-01-04T19:20:19.800Z,37.13
2018-01-04T19:22:48.127Z,46.90
2018-01-04T19:25:16.626Z,33.70
2018-01-04T19:27:45.015Z,32.83
2018-01-04T19:30:13.354Z,49.80
2018-01-04T19:32:41.674Z,33.13
2018-01-04T19:35:10.026Z,47.72
2018-01-04T19:37:38.357Z,49.90
2018-01-04T19:40:06.701Z,42.35
2018-01-04T19:42:35.867Z,57.10
2018-01-04T19:45:04.221Z,53.70
2018-01-04T19:47:32.535Z,56.20
2018-01-04T19:50:00.895Z,48.37
2018-01-04T19:52:29.223Z,57.60
2018-01-04T19:54:57.567Z,58.23
2018-01-04T19:57:25.891Z,58.60
2018-01-04T19:59:54.238Z,42.33
2018-01-04T20:02:22.559Z,38.10
2018-01-04T20:04:50.901Z,38.63
2018-01-04T20:07:19.315Z,38.23
2018-01-04T20:09:47.660Z,48.13
2018-01-04T20:12:15.974Z,53.90
2018-01-04T20:14:44.318Z,43.65
2018-01-04T20:17:12.663Z,50.50
2018-01-04T20:19:41.001Z,50.30
2018-01-04T20:22:09.330Z,46.33
2018-01-04T20:24:38.169Z,44.08
2018-01-04T20:27:06.491Z,59.60
2018-01-04T20:29:34.854Z,36.63
2018-01-04T20:32:03.218Z,51.08
2018-01-04T20:34:31.683Z,57.93
2018-01-04T20:37:00.027Z,48.42
2018-01-04T20:39:28.396Z,39.07
2018-01-04T20:41:56.797Z,54.97
2018-01-04T20:44:25.094Z,28.57
2018-01-04T20:46:53.520Z,41.50
2018-01-04T20:49:22.017Z,45.33
2018-01-04T20:51:50.798Z,25.03
2018-01-04T20:54:19.129Z,29.23
2018-01-04T20:56:47.471Z,19.40
2018-01-04T20:59:15.832Z,16.85
2018-01-04T21:01:44.351Z,16.00
2018-01-04T21:04:12.737Z,28.30
2018-01-04T21:06:41.069Z,13.23
2018-01-04T21:09:09.489Z,14.00
2018-01-04T21:11:38.843Z,16.73
2018-01-04T21:14:07.215Z,21.35
2018-01-04T21:16:35.714Z,15.50
2018-01-04T21:19:04.127Z,26.13
2018-01-04T21:21:32.806Z,34.75
2018-01-04T21:24:01.121Z,27.00
2018-01-04T21:26:29.466Z,25.73
2018-01-04T21:28:57.781Z,22.80
2018-01-04T21:31:26.354Z,32.50
2018-01-04T21:33:55.731Z,38.90
2018-01-04T21:36:25.170Z,30.23
2018-01-04T21:38:53.497Z,28.96
2018-01-04T21:41:21.952Z,23.23
2018-01-04T21:43:50.823Z,43.07
2018-01-04T21:46:19.697Z,46.60
2018-01-04T21:48:48.670Z,45.27
2018-01-04T21:51:16.997Z,38.75
2018-01-04T21:53:45.374Z,15.50
2018-01-04T21:56:13.714Z,26.00
2018-01-04T21:58:42.027Z,20.73
2018-01-04T22:01:10.357Z,41.37
2018-01-04T22:03:38.678Z,18.00
2018-01-04T22:06:07.018Z,17.62
2018-01-04T22:08:35.342Z,34.73
2018-01-04T22:11:03.699Z,23.37
2018-01-04T22:13:31.998Z,24.60
2018-01-04T22:16:00.339Z,27.67
2018-01-04T22:18:28.650Z,21.90
2018-01-04T22:20:56.989Z,19.63
2018-01-04T22:23:25.310Z,29.73
2018-01-04T22:25:53.655Z,21.12
2018-01-04T22:28:22.026Z,36.53
2018-01-04T22:30:50.438Z,18.20
2018-01-04T22:33:19.070Z,29.97
2018-01-04T22:35:48.339Z,21.65
2018-01-04T22:38:16.658Z,30.08
2018-01-04T22:40:44.982Z,30.93
2018-01-04T22:43:13.323Z,29.90
2018-01-04T22:45:42.691Z,22.10
2018-01-04T22:48:11.035Z,30.73
2018-01-04T22:50:40.779Z,19.73
2018-01-04T22:53:09.144Z,18.83
2018-01-04T22:55:38.382Z,38.27
2018-01-04T22:58:06.726Z,17.10
2018-01-04T23:00:35.047Z,22.15
2018-01-04T23:03:03.386Z,19.00
2018-01-04T23:05:31.699Z,20.40
2018-01-04T23:08:00.049Z,14.30
2018-01-04T23:10:28.350Z,14.57
2018-01-04T23:12:56.696Z,18.87
2018-01-04T23:15:25.009Z,15.67
2018-01-04T23:17:53.346Z,10.10
2018-01-04T23:20:21.662Z,26.47
2018-01-04T23:22:50.001Z,14.70
2018-01-04T23:25:18.369Z,9.83
2018-01-04T23:27:46.657Z,16.08
2018-01-04T23:30:14.975Z,18.53
2018-01-04T23:32:43.322Z,19.27
2018-01-04T23:35:11.638Z,9.80
2018-01-04T23:37:39.970Z,9.63
2018-01-04T23:40:08.285Z,6.55
2018-01-04T23:42:36.609Z,6.37
2018-01-04T23:45:04.923Z,11.68
2018-01-04T23:47:33.271Z,18.87
2018-01-04T23:50:01.582Z,18.50
2018-01-04T23:52:29.918Z,9.10
2018-01-04T23:54:59.138Z,11.90
2018-01-04T23:57:27.469Z,4.33
2018-01-04T23:59:55.781Z,9.67
